Time;durP1;ratioP1;P1;durP2;ratioP2;P2;SDS_P1;SDS_P2;PMS_P1;PMS_P2;Temp;Humidity;BMP_temperature;BMP_pressure;BME280_temperature;BME280_humidity;BME280_pressure;Samples;Min_cycle;Max_cycle;Signal;HPM_P1;HPM_P2
2022/10/18 00:01:09;;;;;;;9.60;4.90;;;;;;;17.79;100.00;100927.94;5091263;28;20032;-59
2022/10/18 00:03:35;;;;;;;8.10;3.88;;;;;;;17.82;100.00;100929.63;5088460;28;20073;-59
2022/10/18 00:06:01;;;;;;;9.00;4.57;;;;;;;17.82;100.00;100929.63;5071737;28;20094;-59
2022/10/18 00:08:27;;;;;;;7.35;3.60;;;;;;;17.82;100.00;100925.13;5070671;28;20052;-58
2022/10/18 00:10:52;;;;;;;5.85;3.70;;;;;;;17.80;100.00;100921.63;5071048;28;20512;-59
2022/10/18 00:13:18;;;;;;;7.88;3.40;;;;;;;17.78;100.00;100923.50;5070465;28;20104;-59
2022/10/18 00:15:49;;;;;;;8.27;3.92;;;;;;;17.80;100.00;100926.13;5070836;28;20021;-59
2022/10/18 00:18:14;;;;;;;5.55;3.45;;;;;;;17.79;100.00;100927.09;5073174;28;20043;-59
2022/10/18 00:20:39;;;;;;;8.73;3.65;;;;;;;17.82;100.00;100929.63;5070573;28;20037;-59
2022/10/18 00:23:05;;;;;;;9.35;3.50;;;;;;;17.82;100.00;100930.50;5070234;28;20093;-58
2022/10/18 00:25:30;;;;;;;5.25;3.47;;;;;;;17.82;100.00;100930.50;5070795;28;20475;-59
2022/10/18 00:27:56;;;;;;;6.72;3.50;;;;;;;17.83;100.00;100934.94;5070939;28;20099;-59
2022/10/18 00:30:21;;;;;;;8.15;4.15;;;;;;;17.85;100.00;100940.25;5070840;28;20025;-58
2022/10/18 00:32:46;;;;;;;7.38;3.60;;;;;;;17.88;100.00;100935.59;5070074;28;20047;-58
2022/10/18 00:35:12;;;;;;;6.35;3.78;;;;;;;17.88;100.00;100945.47;5070816;28;20039;-58
2022/10/18 00:37:37;;;;;;;5.85;3.13;;;;;;;17.92;100.00;100936.31;5069483;28;20021;-59
2022/10/18 00:40:04;;;;;;;6.85;3.10;;;;;;;17.92;100.00;100930.94;5069518;28;20024;-58
2022/10/18 00:42:32;;;;;;;7.80;3.60;;;;;;;17.92;100.00;100941.72;5069847;28;20077;-58
2022/10/18 00:45:05;;;;;;;8.43;4.03;;;;;;;17.91;100.00;100935.44;5073633;28;20024;-59
2022/10/18 00:47:33;;;;;;;8.18;3.30;;;;;;;17.87;100.00;100933.84;5073444;28;20555;-59
2022/10/18 00:50:02;;;;;;;6.90;3.45;;;;;;;17.90;100.00;100943.59;5072936;28;20413;-59
2022/10/18 00:52:44;;;;;;;7.13;3.42;;;;;;;17.88;100.00;100945.47;5073746;28;20029;-58
2022/10/18 00:55:10;;;;;;;6.25;3.28;;;;;;;17.83;100.00;100951.09;5073893;28;20027;-59
2022/10/18 00:57:37;;;;;;;7.22;3.20;;;;;;;17.82;100.00;100951.16;5074068;28;20484;-59
2022/10/18 01:00:37;;;;;;;9.35;3.50;;;;;;;17.76;100.00;100952.31;5073744;28;20051;-58
2022/10/18 01:03:03;;;;;;;9.77;3.58;;;;;;;17.73;100.00;100949.78;5062168;28;20538;-59
2022/10/18 01:05:29;;;;;;;8.25;4.35;;;;;;;17.73;100.00;100946.19;5094050;28;20028;-59
2022/10/18 01:08:18;;;;;;;6.43;3.35;;;;;;;17.74;100.00;100935.34;5093983;28;20066;-59
2022/10/18 01:11:08;;;;;;;7.28;3.38;;;;;;;17.80;100.00;100931.50;5086743;28;20146;-59
2022/10/18 01:13:36;;;;;;;7.18;3.38;;;;;;;17.81;100.00;100926.06;5073483;28;20401;-59
2022/10/18 01:16:30;;;;;;;8.38;3.30;;;;;;;17.78;100.00;100936.97;5073438;28;20056;-59
2022/10/18 01:19:01;;;;;;;7.22;3.72;;;;;;;17.75;100.00;100938.94;5061353;28;20040;-58
2022/10/18 01:21:49;;;;;;;8.68;3.20;;;;;;;17.71;100.00;100935.50;5073520;28;20103;-59
2022/10/18 01:24:33;;;;;;;6.93;4.72;;;;;;;17.68;100.00;100935.66;5060077;28;20063;-59
2022/10/18 01:26:58;;;;;;;6.00;2.90;;;;;;;17.67;100.00;100930.34;5073546;28;20099;-59
2022/10/18 01:30:01;;;;;;;10.27;3.28;;;;;;;17.69;100.00;100931.16;5073288;28;20108;-59
2022/10/18 01:32:35;;;;;;;6.47;3.45;;;;;;;17.72;100.00;100929.19;5053608;28;20074;-59
2022/10/18 01:35:06;;;;;;;6.32;3.60;;;;;;;17.76;100.00;100924.53;5090529;28;20117;-58
2022/10/18 01:37:34;;;;;;;6.13;3.35;;;;;;;17.79;100.00;100927.94;5093375;28;20028;-59
2022/10/18 01:40:05;;;;;;;7.75;3.85;;;;;;;17.85;100.00;100930.34;5093275;28;20028;-60
2022/10/18 01:42:31;;;;;;;5.63;3.05;;;;;;;17.83;100.00;100926.88;5093548;28;20235;-59
2022/10/18 01:44:58;;;;;;;9.10;3.53;;;;;;;17.81;100.00;100933.25;5093459;28;20364;-58
2022/10/18 01:47:25;;;;;;;10.48;4.05;;;;;;;17.78;100.00;100926.22;5093332;28;20036;-59
2022/10/18 01:49:58;;;;;;;6.85;3.45;;;;;;;17.78;100.00;100917.25;5093000;28;20386;-59
2022/10/18 01:52:23;;;;;;;11.18;4.00;;;;;;;17.86;100.00;100926.72;5073039;28;20035;-59
2022/10/18 01:54:49;;;;;;;10.75;3.92;;;;;;;17.85;100.00;100919.59;5072607;28;20033;-59
2022/10/18 01:57:29;;;;;;;9.05;3.63;;;;;;;17.89;100.00;100906.88;5072716;28;20025;-58
2022/10/18 02:00:00;;;;;;;6.00;4.18;;;;;;;17.84;100.00;100900.84;5072817;28;20498;-59
2022/10/18 02:02:28;;;;;;;6.43;3.95;;;;;;;17.88;100.00;100914.06;5072732;28;20098;-59
2022/10/18 02:05:02;;;;;;;9.90;3.50;;;;;;;17.82;100.00;100913.47;5091258;28;20031;-59
2022/10/18 02:07:42;;;;;;;8.00;3.50;;;;;;;17.83;100.00;100909.81;5092824;28;20505;-58
2022/10/18 02:10:17;;;;;;;9.75;3.38;;;;;;;17.80;100.00;100905.47;5092934;28;20028;-58
2022/10/18 02:12:46;;;;;;;9.63;3.85;;;;;;;17.73;100.00;100898.63;5093002;28;20024;-59
2022/10/18 02:15:16;;;;;;;7.80;4.10;;;;;;;17.76;100.00;100903.03;5086943;28;20024;-59
2022/10/18 02:17:43;;;;;;;10.65;4.40;;;;;;;17.72;100.00;100899.59;5072291;28;20125;-59
2022/10/18 02:20:11;;;;;;;9.93;3.60;;;;;;;17.66;100.00;100899.88;5072226;28;20040;-59
2022/10/18 02:22:39;;;;;;;6.93;3.58;;;;;;;17.63;100.00;100897.31;5072524;28;20154;-59
2022/10/18 02:25:09;;;;;;;9.98;3.60;;;;;;;17.58;100.00;100902.06;5072548;28;20361;-59
2022/10/18 02:27:36;;;;;;;6.47;3.55;;;;;;;17.47;100.00;100890.94;5072470;28;20491;-59
2022/10/18 02:30:03;;;;;;;7.55;3.75;;;;;;;17.34;100.00;100888.84;5072047;28;20035;-59
2022/10/18 02:32:39;;;;;;;16.08;4.05;;;;;;;17.24;100.00;100891.09;5072159;28;20024;-58
2022/10/18 02:35:23;;;;;;;7.68;3.97;;;;;;;17.20;100.00;100892.16;5072188;28;20016;-58
2022/10/18 02:37:51;;;;;;;6.43;3.80;;;;;;;17.18;100.00;100888.69;5072025;28;20464;-59
2022/10/18 02:40:17;;;;;;;8.15;3.42;;;;;;;17.11;100.00;100889.91;5072110;28;20029;-58
2022/10/18 02:42:47;;;;;;;13.88;4.03;;;;;;;17.11;100.00;100900.66;5072006;28;20020;-58
2022/10/18 02:45:14;;;;;;;6.90;3.60;;;;;;;17.10;100.00;100896.22;5071872;28;20040;-59
2022/10/18 02:47:39;;;;;;;5.93;4.00;;;;;;;17.07;100.00;100896.34;5072142;28;20108;-59
2022/10/18 02:50:05;;;;;;;8.10;3.20;;;;;;;17.00;100.00;100890.38;5071307;28;20107;-59
2022/10/18 02:52:31;;;;;;;7.18;4.05;;;;;;;16.99;100.00;100901.19;5071898;28;20027;-58
2022/10/18 02:55:00;;;;;;;5.93;3.08;;;;;;;16.91;100.00;100906.94;5071596;28;20029;-58
2022/10/18 02:57:25;;;;;;;8.00;3.58;;;;;;;16.81;100.00;100893.97;5071678;28;20020;-59
2022/10/18 02:59:51;;;;;;;6.82;3.88;;;;;;;16.81;100.00;100896.63;5071698;28;20576;-59
2022/10/18 03:02:16;;;;;;;6.22;3.75;;;;;;;16.81;100.00;100900.22;5071594;28;20101;-59
2022/10/18 03:04:42;;;;;;;7.90;3.28;;;;;;;16.82;100.00;100895.69;5088070;28;20036;-59
2022/10/18 03:07:07;;;;;;;8.68;3.72;;;;;;;16.81;100.00;100902.00;5090948;28;20050;-59
2022/10/18 03:09:33;;;;;;;6.70;3.70;;;;;;;16.82;100.00;100906.44;5091457;28;20046;-58
2022/10/18 03:11:58;;;;;;;6.95;3.17;;;;;;;16.76;100.00;100906.72;5091543;28;20028;-58
2022/10/18 03:14:24;;;;;;;8.18;4.10;;;;;;;16.71;100.00;100911.41;5073798;28;20082;-59
2022/10/18 03:16:49;;;;;;;6.30;3.63;;;;;;;16.68;100.00;100909.75;5070890;28;20031;-58
2022/10/18 03:19:14;;;;;;;7.70;3.92;;;;;;;16.68;100.00;100915.13;5070558;28;20425;-59
2022/10/18 03:21:40;;;;;;;5.88;3.58;;;;;;;16.71;100.00;100914.09;5071503;28;20036;-59
2022/10/18 03:24:06;;;;;;;9.63;3.88;;;;;;;16.69;100.00;100919.53;5070855;28;20034;-59
2022/10/18 03:26:31;;;;;;;6.45;3.63;;;;;;;16.61;100.00;100918.13;5070894;28;20048;-58
2022/10/18 03:28:57;;;;;;;8.40;3.65;;;;;;;16.47;100.00;100924.09;5071203;28;20035;-59
2022/10/18 03:31:22;;;;;;;9.05;3.42;;;;;;;16.37;100.00;100929.88;5070939;28;20039;-59
2022/10/18 03:33:47;;;;;;;8.88;3.20;;;;;;;16.31;100.00;100931.00;5070959;28;20054;-59
2022/10/18 03:36:13;;;;;;;13.60;3.83;;;;;;;16.22;100.00;100919.78;5071055;28;20036;-59
2022/10/18 03:38:38;;;;;;;8.48;3.47;;;;;;;16.33;100.00;100936.31;5071309;28;20025;-59
2022/10/18 03:41:04;;;;;;;7.07;3.45;;;;;;;16.38;100.00;100926.25;5073773;28;20037;-59
2022/10/18 03:43:30;;;;;;;5.85;3.42;;;;;;;16.41;100.00;100931.47;5071282;28;20448;-59
2022/10/18 03:45:55;;;;;;;8.32;3.67;;;;;;;16.44;100.00;100931.38;5070543;28;20376;-59
2022/10/18 03:48:21;;;;;;;7.15;3.13;;;;;;;16.52;100.00;100940.88;5070667;28;20063;-58
2022/10/18 03:50:46;;;;;;;6.88;3.53;;;;;;;16.54;100.00;100941.69;5070903;28;20028;-59
2022/10/18 03:53:12;;;;;;;10.02;2.97;;;;;;;16.58;100.00;100939.75;5070447;28;20024;-59
2022/10/18 03:55:37;;;;;;;6.47;3.33;;;;;;;16.70;100.00;100934.75;5069829;28;20024;-58
2022/10/18 03:58:04;;;;;;;6.38;3.83;;;;;;;16.77;100.00;100946.94;5069896;28;20468;-59
2022/10/18 04:00:29;;;;;;;9.75;3.67;;;;;;;16.84;100.00;100937.69;5069792;28;20028;-59
2022/10/18 04:02:55;;;;;;;8.38;4.15;;;;;;;16.92;100.00;100934.66;5071092;28;20541;-59
2022/10/18 04:05:22;;;;;;;7.90;3.78;;;;;;;17.03;100.00;100938.63;5077073;28;20058;-59
2022/10/18 04:07:48;;;;;;;5.35;3.60;;;;;;;17.12;100.00;100934.66;5070006;28;20044;-59
2022/10/18 04:10:13;;;;;;;24.98;4.00;;;;;;;17.17;100.00;100940.69;5070059;28;20421;-59
2022/10/18 04:12:39;;;;;;;11.35;3.45;;;;;;;17.23;100.00;100931.50;5070007;28;20024;-59
2022/10/18 04:15:05;;;;;;;11.07;4.30;;;;;;;17.29;100.00;100929.41;5070489;28;20055;-59
2022/10/18 04:17:30;;;;;;;11.45;4.60;;;;;;;17.31;100.00;100938.28;5072080;28;20074;-59
2022/10/18 04:19:56;;;;;;;6.45;3.70;;;;;;;17.33;100.00;100933.69;5074234;28;20705;-59
2022/10/18 04:22:21;;;;;;;13.18;4.20;;;;;;;17.37;100.00;100932.59;5076080;28;20035;-59
2022/10/18 04:24:47;;;;;;;8.43;3.40;;;;;;;17.36;100.00;100930.88;5073886;28;20387;-59
2022/10/18 04:27:12;;;;;;;8.90;3.70;;;;;;;17.36;100.00;100930.88;5074257;28;20012;-59
2022/10/18 04:29:38;;;;;;;8.80;4.20;;;;;;;17.37;100.00;100935.31;5074227;28;20028;-59
2022/10/18 04:32:03;;;;;;;7.88;3.60;;;;;;;17.39;100.00;100938.81;5074239;28;20702;-59
2022/10/18 04:34:28;;;;;;;8.15;3.65;;;;;;;17.39;100.00;100946.88;5074293;28;20462;-59
2022/10/18 04:36:54;;;;;;;10.52;3.58;;;;;;;17.41;100.00;100944.09;5074438;28;20044;-58
2022/10/18 04:39:20;;;;;;;7.72;3.35;;;;;;;17.35;100.00;100955.16;5074440;28;20055;-58
2022/10/18 04:41:45;;;;;;;9.30;3.17;;;;;;;17.31;100.00;100949.03;5073610;28;20410;-58
2022/10/18 04:44:10;;;;;;;8.05;3.03;;;;;;;17.26;100.00;100959.13;5074302;28;20480;-59
2022/10/18 04:46:36;;;;;;;6.28;3.80;;;;;;;17.22;100.00;100962.88;5073997;28;20029;-59
2022/10/18 04:49:01;;;;;;;6.50;3.20;;;;;;;17.01;100.00;100923.50;5074268;28;20040;-59
2022/10/18 04:51:28;;;;;;;7.43;3.10;;;;;;;17.16;100.00;100955.09;5073584;28;20032;-59
2022/10/18 04:53:54;;;;;;;7.82;3.25;;;;;;;17.12;100.00;100949.94;5073471;28;20456;-59
2022/10/18 04:56:19;;;;;;;8.68;2.65;;;;;;;17.08;100.00;100952.72;5072876;28;20035;-59
2022/10/18 04:58:44;;;;;;;6.10;3.08;;;;;;;17.10;100.00;100960.72;5072655;28;20029;-59
2022/10/18 05:01:10;;;;;;;8.25;3.13;;;;;;;17.09;100.00;100954.50;5072800;28;20077;-59
2022/10/18 05:03:35;;;;;;;6.18;2.78;;;;;;;17.16;100.00;100955.09;5080197;28;20049;-59
2022/10/18 05:06:01;;;;;;;6.28;2.90;;;;;;;17.21;100.00;100954.88;5093664;28;20059;-59
2022/10/18 05:08:27;;;;;;;6.95;3.95;;;;;;;17.23;100.00;100953.00;5093538;28;20503;-59
2022/10/18 05:10:52;;;;;;;9.23;3.22;;;;;;;17.24;100.00;100946.69;5076206;28;20052;-59
2022/10/18 05:13:18;;;;;;;7.50;3.22;;;;;;;17.27;100.00;100952.78;5073925;28;20479;-59
2022/10/18 05:15:45;;;;;;;6.63;3.42;;;;;;;17.29;100.00;100956.28;5073738;28;20024;-59
2022/10/18 05:18:10;;;;;;;9.75;4.25;;;;;;;17.33;100.00;100957.03;5073103;28;20535;-59
2022/10/18 05:20:36;;;;;;;15.32;4.32;;;;;;;17.33;100.00;100957.88;5073728;28;20035;-59
2022/10/18 05:23:01;;;;;;;8.38;4.18;;;;;;;17.32;100.00;100958.84;5073377;28;20028;-58
2022/10/18 05:25:27;;;;;;;15.00;4.15;;;;;;;17.39;100.00;100951.38;5073308;28;20088;-59
2022/10/18 05:27:52;;;;;;;7.43;3.65;;;;;;;17.46;100.00;100942.97;5073290;28;20107;-59
2022/10/18 05:30:17;;;;;;;10.90;3.92;;;;;;;17.50;100.00;100941.91;5072396;28;20028;-59
2022/10/18 05:32:43;;;;;;;13.77;4.75;;;;;;;17.50;100.00;100946.38;5072772;28;20059;-58
2022/10/18 05:35:08;;;;;;;13.23;4.50;;;;;;;17.53;100.00;100948.97;5072981;28;20036;-59
2022/10/18 05:37:34;;;;;;;7.53;3.30;;;;;;;17.56;100.00;100946.13;5075660;28;20345;-59
2022/10/18 05:39:59;;;;;;;5.78;3.33;;;;;;;17.58;100.00;100942.41;5073413;28;20039;-59
2022/10/18 05:42:25;;;;;;;10.48;4.50;;;;;;;17.63;100.00;100947.56;5073325;28;20069;-58
2022/10/18 05:44:50;;;;;;;7.78;4.00;;;;;;;17.65;100.00;100935.81;5073128;28;20032;-58
2022/10/18 05:47:16;;;;;;;8.85;3.75;;;;;;;17.67;100.00;100931.22;5068711;28;20027;-58
2022/10/18 05:49:41;;;;;;;6.22;3.63;;;;;;;17.71;100.00;100930.13;5057512;28;20062;-58
2022/10/18 05:52:06;;;;;;;8.80;3.70;;;;;;;17.73;100.00;100933.63;5051273;28;20029;-58
2022/10/18 05:54:32;;;;;;;8.38;3.90;;;;;;;17.75;100.00;100929.03;5051481;28;20427;-58
2022/10/18 05:56:57;;;;;;;8.68;4.72;;;;;;;17.77;100.00;100931.66;5050890;28;20025;-58
2022/10/18 05:59:23;;;;;;;7.57;3.88;;;;;;;17.79;100.00;100938.69;5051310;28;20021;-59
2022/10/18 06:01:48;;;;;;;10.13;3.88;;;;;;;17.81;100.00;100934.13;5062534;28;20130;-58
2022/10/18 06:04:14;;;;;;;10.73;4.40;;;;;;;17.83;100.00;100948.41;5078675;28;20024;-59
2022/10/18 06:06:39;;;;;;;8.20;4.18;;;;;;;17.80;100.00;100948.53;5070359;28;20417;-59
2022/10/18 06:09:06;;;;;;;8.52;3.50;;;;;;;17.79;100.00;100944.09;5063874;28;20047;-58
2022/10/18 06:11:31;;;;;;;8.45;3.42;;;;;;;17.83;100.00;100953.78;5070053;28;20032;-58
2022/10/18 06:13:57;;;;;;;7.90;3.35;;;;;;;17.83;100.00;100950.19;5068672;28;20371;-58
2022/10/18 06:16:24;;;;;;;7.82;3.60;;;;;;;17.85;100.00;100957.28;5070392;28;20028;-59
2022/10/18 06:18:55;;;;;;;7.18;2.97;;;;;;;17.88;100.00;100962.50;5057930;28;20412;-59
2022/10/18 06:21:21;;;;;;;5.72;3.00;;;;;;;17.92;100.00;100964.09;5066654;28;20476;-59
2022/10/18 06:23:52;;;;;;;6.45;3.40;;;;;;;17.96;100.00;100971.09;5057930;28;20031;-59
2022/10/18 06:26:17;;;;;;;5.25;3.28;;;;;;;17.96;100.00;100965.72;5055020;28;20021;-59
2022/10/18 06:28:43;;;;;;;6.20;2.80;;;;;;;18.10;100.00;100971.28;5073032;28;20046;-58
2022/10/18 06:31:10;;;;;;;6.70;3.40;;;;;;;18.18;100.00;100977.19;5070010;28;20391;-58
2022/10/18 06:33:36;;;;;;;5.45;2.97;;;;;;;18.22;100.00;100978.78;5070296;28;20083;-58
2022/10/18 06:36:11;;;;;;;6.00;3.47;;;;;;;18.26;100.00;100980.41;5062382;28;20120;-58
2022/10/18 06:38:37;;;;;;;6.18;2.67;;;;;;;18.41;100.00;100984.19;5050433;28;20498;-58
2022/10/18 06:41:04;;;;;;;7.57;2.80;;;;;;;18.51;100.00;100984.59;5058581;28;20024;-59
2022/10/18 06:43:29;;;;;;;5.53;2.67;;;;;;;18.56;100.00;100982.56;5060210;28;20023;-58
2022/10/18 06:45:55;;;;;;;5.20;2.67;;;;;;;18.63;100.00;100994.78;5062306;28;20359;-59
2022/10/18 06:48:21;;;;;;;5.07;3.05;;;;;;;18.67;100.00;100993.66;5069739;28;20029;-58
2022/10/18 06:50:55;;;;;;;6.82;3.20;;;;;;;18.71;100.00;100997.97;5070269;28;20025;-58
2022/10/18 06:53:22;;;;;;;8.63;3.53;;;;;;;18.74;100.00;101008.56;5063281;28;20048;-58
2022/10/18 06:55:47;;;;;;;7.53;2.83;;;;;;;18.73;100.00;101018.47;5069407;28;20043;-59
2022/10/18 06:58:13;;;;;;;6.53;2.95;;;;;;;18.68;100.00;101019.69;5070346;28;20048;-58
2022/10/18 07:00:38;;;;;;;10.48;3.17;;;;;;;18.61;100.00;101018.22;5068110;28;20056;-59
2022/10/18 07:03:04;;;;;;;8.25;3.50;;;;;;;18.59;100.00;101020.13;5072466;28;20028;-58
2022/10/18 07:05:30;;;;;;;6.70;3.65;;;;;;;18.51;100.00;101011.53;5075878;28;20024;-58
2022/10/18 07:07:55;;;;;;;6.07;3.25;;;;;;;18.55;100.00;101035.56;5058728;28;20048;-59
2022/10/18 07:10:21;;;;;;;5.80;3.17;;;;;;;18.53;100.00;101037.47;5054729;28;20082;-58
2022/10/18 07:12:46;;;;;;;13.45;4.18;;;;;;;18.50;100.00;101042.16;5069167;28;20074;-58
2022/10/18 07:15:12;;;;;;;9.57;5.45;;;;;;;18.45;100.00;101060.34;5063347;28;20538;-58
2022/10/18 07:17:37;;;;;;;7.40;3.53;;;;;;;18.40;100.00;101065.97;5069467;28;20037;-58
2022/10/18 07:20:03;;;;;;;11.82;3.88;;;;;;;18.32;100.00;101066.28;5055732;28;20589;-59
2022/10/18 07:22:29;;;;;;;10.25;4.70;;;;;;;18.25;100.00;101059.44;5069196;28;20586;-59
2022/10/18 07:24:54;;;;;;;9.93;4.82;;;;;;;18.22;100.00;101059.56;5069126;28;20028;-58
2022/10/18 07:27:20;;;;;;;10.05;4.95;;;;;;;18.16;100.00;101054.50;5069644;28;20024;-58
2022/10/18 07:29:45;;;;;;;9.20;4.90;;;;;;;18.19;100.00;101080.38;5069290;28;20035;-58
2022/10/18 07:32:11;;;;;;;8.15;4.53;;;;;;;18.18;100.00;101078.66;5060981;28;20029;-59
2022/10/18 07:34:36;;;;;;;10.52;4.85;;;;;;;18.16;100.00;101084.13;5055197;28;20021;-58
2022/10/18 07:37:01;;;;;;;11.02;5.05;;;;;;;18.19;100.00;101086.66;5053067;28;20024;-59
2022/10/18 07:39:27;;;;;;;10.27;4.95;;;;;;;18.25;100.00;101080.13;5056488;28;20468;-59
2022/10/18 07:41:53;;;;;;;8.52;4.90;;;;;;;18.40;100.00;101083.94;5053050;28;20029;-58
2022/10/18 07:44:18;;;;;;;8.60;5.20;;;;;;;18.62;100.00;101084.63;5052126;28;20095;-59
2022/10/18 07:46:43;;;;;;;8.52;5.13;;;;;;;18.81;100.00;101083.69;5059749;28;20039;-59
2022/10/18 07:49:09;;;;;;;10.85;4.97;;;;;;;18.96;100.00;101090.16;5052172;28;20036;-58
2022/10/18 07:51:35;;;;;;;9.32;5.05;;;;;;;19.26;100.00;101088.56;5053739;28;20484;-59
2022/10/18 07:54:01;;;;;;;11.45;5.97;;;;;;;20.56;100.00;101094.09;5052356;28;20028;-58
2022/10/18 07:56:26;;;;;;;9.15;5.10;;;;;;;21.26;100.00;101098.16;5055929;28;20025;-59
2022/10/18 07:58:54;;;;;;;8.20;4.68;;;;;;;21.13;95.74;101095.34;5054790;28;20506;-59
2022/10/18 08:01:21;;;;;;;9.60;4.72;;;;;;;20.84;95.22;101099.69;5050971;28;20037;-60
2022/10/18 08:03:47;;;;;;;7.15;4.32;;;;;;;20.57;96.03;101095.88;5056206;28;20236;-59
2022/10/18 08:06:15;;;;;;;8.85;4.50;;;;;;;21.52;100.00;101082.13;5053355;28;20032;-59
2022/10/18 08:08:41;;;;;;;11.82;4.28;;;;;;;23.13;87.07;101090.66;5057425;28;20056;-59
2022/10/18 08:11:17;;;;;;;6.28;3.80;;;;;;;23.86;81.45;101097.38;5052035;28;20033;-59
2022/10/18 08:13:43;;;;;;;6.30;3.53;;;;;;;24.50;75.48;101088.22;5053496;28;20071;-60
2022/10/18 08:16:11;;;;;;;6.85;3.50;;;;;;;24.13;72.68;101094.59;5061534;28;20060;-59
2022/10/18 08:18:38;;;;;;;8.13;3.58;;;;;;;23.18;75.05;101099.38;5061259;28;20028;-59
2022/10/18 08:21:06;;;;;;;6.90;3.42;;;;;;;22.48;78.18;101099.53;5054028;28;20037;-59
2022/10/18 08:23:31;;;;;;;6.05;3.28;;;;;;;21.93;81.59;101104.88;5058463;28;20032;-60
2022/10/18 08:26:03;;;;;;;6.35;3.33;;;;;;;21.51;85.10;101112.88;5056474;28;20032;-60
2022/10/18 08:28:28;;;;;;;7.55;3.40;;;;;;;21.41;87.47;101117.09;5052291;28;20024;-60
2022/10/18 08:30:54;;;;;;;5.63;3.78;;;;;;;21.37;88.32;101104.69;5056664;28;20403;-60
2022/10/18 08:33:19;;;;;;;8.20;4.38;;;;;;;21.31;88.27;101109.59;5056340;28;20025;-60
2022/10/18 08:35:56;;;;;;;14.35;5.75;;;;;;;21.10;89.05;101108.16;5052676;28;20036;-59
2022/10/18 08:38:22;;;;;;;138.32;67.00;;;;;;;21.11;89.57;101109.91;5058626;28;20042;-59
2022/10/18 08:40:48;;;;;;;25.55;12.00;;;;;;;21.14;90.36;101110.59;5052541;28;20684;-60
2022/10/18 08:43:26;;;;;;;16.17;9.57;;;;;;;21.29;90.45;101108.81;5051634;28;20473;-60
2022/10/18 08:45:53;;;;;;;13.75;5.35;;;;;;;21.48;88.75;101106.78;5056472;28;20507;-60
2022/10/18 08:48:42;;;;;;;8.63;3.90;;;;;;;22.37;87.94;101099.38;5052119;28;20021;-59
2022/10/18 08:51:38;;;;;;;7.13;3.15;;;;;;;24.47;77.36;101091.16;5053075;28;20033;-59
2022/10/18 08:54:12;;;;;;;10.98;4.47;;;;;;;25.75;66.52;101093.16;5050861;28;20037;-60
2022/10/18 08:56:41;;;;;;;62.08;26.42;;;;;;;27.16;62.62;101104.34;5051922;28;20923;-60
2022/10/18 08:59:13;;;;;;;48.83;24.02;;;;;;;27.71;59.08;101098.66;5052940;28;20056;-61
2022/10/18 09:01:53;;;;;;;32.88;16.35;;;;;;;26.86;59.37;101107.78;5051483;28;20074;-60
2022/10/18 09:04:46;;;;;;;13.10;7.88;;;;;;;26.58;61.61;101115.59;5054633;28;20090;-60
2022/10/18 09:07:56;;;;;;;9.18;3.60;;;;;;;26.81;61.23;101106.41;5055745;28;20064;-61
2022/10/18 09:10:38;;;;;;;21.17;4.25;;;;;;;28.06;59.41;101104.69;5051004;28;20049;-60
2022/10/18 09:13:34;;;;;;;6.22;2.97;;;;;;;28.94;53.96;101108.56;5056051;28;20407;-60
2022/10/18 09:16:03;;;;;;;7.40;3.05;;;;;;;29.55;52.92;101112.00;5054133;28;20030;-61
2022/10/18 09:18:50;;;;;;;10.02;3.22;;;;;;;29.78;50.78;101118.94;5053664;28;20024;-61
2022/10/18 09:21:56;;;;;;;6.50;2.72;;;;;;;29.85;50.21;101111.88;5054112;28;20037;-61
2022/10/18 09:24:35;;;;;;;7.35;2.95;;;;;;;30.11;49.69;101118.47;5018549;28;20044;-61
2022/10/18 09:27:13;;;;;;;6.63;3.65;;;;;;;29.26;49.32;101124.81;5056237;28;20036;-61
2022/10/18 09:30:12;;;;;;;5.80;3.08;;;;;;;28.51;52.77;101120.81;5057401;28;20052;-59
2022/10/18 09:32:46;;;;;;;5.70;2.80;;;;;;;27.93;53.79;101117.72;5055963;28;20047;-59
2022/10/18 09:35:45;;;;;;;6.95;2.78;;;;;;;27.44;57.24;101122.91;5054195;28;20143;-59
2022/10/18 09:38:17;;;;;;;6.28;3.00;;;;;;;27.15;59.69;101121.72;5053057;28;20155;-59
2022/10/18 09:40:53;;;;;;;5.97;2.55;;;;;;;27.36;58.70;101119.97;5055251;28;20036;-59
2022/10/18 09:43:24;;;;;;;6.15;2.55;;;;;;;28.10;56.14;101122.59;5053966;28;20029;-59
2022/10/18 09:45:52;;;;;;;5.15;2.95;;;;;;;28.63;52.50;101116.97;5054606;28;20379;-59
2022/10/18 09:48:27;;;;;;;6.43;2.45;;;;;;;29.44;51.36;101123.13;5054503;28;20047;-59
2022/10/18 09:51:10;;;;;;;5.10;2.50;;;;;;;29.96;50.18;101125.44;5052544;28;20095;-59
2022/10/18 09:53:50;;;;;;;7.65;2.70;;;;;;;29.47;50.23;101133.78;5053330;28;20034;-60
2022/10/18 09:56:36;;;;;;;5.18;2.10;;;;;;;28.81;53.22;101126.28;5053815;28;20032;-60
2022/10/18 09:59:02;;;;;;;3.83;2.08;;;;;;;28.32;53.89;101121.53;5054706;28;20033;-59
2022/10/18 10:01:30;;;;;;;5.07;2.25;;;;;;;28.10;55.81;101124.47;5054047;28;20381;-60
2022/10/18 10:03:56;;;;;;;4.90;2.55;;;;;;;28.29;54.93;101122.69;5054240;28;20028;-59
2022/10/18 10:06:33;;;;;;;6.03;2.38;;;;;;;28.53;52.56;101118.81;5038634;28;20024;-59
2022/10/18 10:09:12;;;;;;;10.48;2.60;;;;;;;28.74;52.16;101127.81;5053206;28;20072;-59
2022/10/18 10:11:44;;;;;;;6.45;2.63;;;;;;;28.78;50.80;101126.56;5035067;28;20056;-59
2022/10/18 10:14:16;;;;;;;6.95;2.30;;;;;;;28.51;52.77;101124.41;5052858;28;20083;-59
2022/10/18 10:16:53;;;;;;;10.27;2.30;;;;;;;28.39;53.15;101129.09;5053652;28;20037;-59
2022/10/18 10:19:30;;;;;;;6.38;4.22;;;;;;;28.33;53.99;101112.34;5054718;28;20024;-59
2022/10/18 10:22:38;;;;;;;7.25;2.40;;;;;;;28.84;53.83;101123.25;5055556;28;20025;-59
2022/10/18 10:25:05;;;;;;;12.43;6.75;;;;;;;29.95;52.67;101123.69;5043218;28;20408;-60
2022/10/18 10:27:42;;;;;;;4.30;2.20;;;;;;;30.71;49.79;101120.72;5053002;28;20025;-59
2022/10/18 10:30:30;;;;;;;3.38;1.98;;;;;;;31.38;47.29;101123.16;5054200;28;20107;-59
2022/10/18 10:32:56;;;;;;;5.05;1.98;;;;;;;31.15;46.28;101120.97;5053100;28;20098;-60
2022/10/18 10:35:23;;;;;;;18.80;2.55;;;;;;;31.24;47.16;101117.25;5055334;28;20050;-60
2022/10/18 10:37:53;;;;;;;7.75;3.95;;;;;;;31.34;46.63;101115.34;5052406;28;20031;-60
2022/10/18 10:40:50;;;;;;;6.32;2.97;;;;;;;31.08;46.53;101114.34;5053284;28;20029;-60
2022/10/18 10:43:23;;;;;;;5.50;2.83;;;;;;;31.22;47.61;101119.31;5054910;28;20108;-60
2022/10/18 10:46:08;;;;;;;4.55;1.85;;;;;;;31.75;47.26;101121.09;5052583;28;20678;-60
2022/10/18 10:48:54;;;;;;;3.65;2.00;;;;;;;32.13;45.09;101117.09;5053579;28;20132;-60
2022/10/18 10:51:38;;;;;;;4.13;1.83;;;;;;;32.34;42.69;101117.59;5053139;28;20927;-59
2022/10/18 10:54:12;;;;;;;4.63;2.00;;;;;;;32.44;45.37;101120.28;5051494;28;20024;-59
2022/10/18 10:57:09;;;;;;;4.68;1.85;;;;;;;32.16;43.97;101116.78;5054410;28;20507;-60
2022/10/18 10:59:51;;;;;;;4.47;1.80;;;;;;;31.35;46.23;101122.59;5044647;28;20046;-60
2022/10/18 11:02:25;;;;;;;5.28;2.08;;;;;;;30.80;46.48;101114.38;5053764;28;20039;-59
2022/10/18 11:04:52;;;;;;;6.93;1.90;;;;;;;29.97;49.00;101121.66;5054884;28;20059;-60
2022/10/18 11:07:47;;;;;;;6.53;2.33;;;;;;;29.90;50.06;101114.19;5051368;28;21011;-59
2022/10/18 11:10:18;;;;;;;4.68;2.03;;;;;;;30.26;49.54;101114.28;5034298;28;20053;-59
2022/10/18 11:13:14;;;;;;;4.43;2.08;;;;;;;30.97;47.06;101111.81;5053100;28;20039;-59
2022/10/18 11:15:51;;;;;;;4.75;2.03;;;;;;;30.75;48.64;101108.44;5052115;28;20112;-60
2022/10/18 11:18:28;;;;;;;3.63;1.83;;;;;;;30.00;49.74;101113.13;5054529;28;20663;-59
2022/10/18 11:21:07;;;;;;;7.90;1.98;;;;;;;29.20;54.24;101114.41;5057280;28;20115;-59
2022/10/18 11:23:35;;;;;;;5.55;1.90;;;;;;;28.56;55.22;101110.31;5060425;28;20103;-59
2022/10/18 11:26:00;;;;;;;6.47;2.35;;;;;;;28.05;57.09;101116.66;5057774;28;20100;-59
2022/10/18 11:28:31;;;;;;;6.15;2.20;;;;;;;27.69;58.84;101105.28;5052303;28;20499;-59
2022/10/18 11:31:22;;;;;;;6.53;2.50;;;;;;;27.38;61.53;101107.03;5058822;28;20112;-59